CheckWX is a tool to help pilots better visualize weather data.  It is not intended as a substitute for an official pre-flight weather briefing.

17:56:34 UTC

MMPN TAF
Licenciado y General Ignacio Lopez Rayon Airport
Mexico
TAF MMPN 241633Z 2418/2518 18005KT P6SM SKC BECMG 2420/2421 21012KT SCT030 FM250200 00000KT P6SM SKC BECMG 2512/2513 6SM HZ

Mar-24@
18:00 UTC

Mar-24 @ 18:00 UTC

Mar-24@
20:00 UTC

Mar-24 @ 20:00 UTC

TAF MMPN 241633Z 2418/2518 18005KT P6SM SKC
Wind
  • 180° at 5 KTS
Cloud Levels
  • Clear skies

Mar-24@
20:00 UTC

Mar-24 @ 20:00 UTC

Mar-25@
02:00 UTC

Mar-25 @ 02:00 UTC

BECMG 2420/2421 21012KT SCT030

Becoming

Becoming Conditions expected by Sun, Mar 24, 2019 @ 21:00 UTC

Wind
  • 210° at 12 KTS
Cloud Levels
  • Scattered at 3,000' AGL

Mar-25@
02:00 UTC

Mar-25 @ 02:00 UTC

Mar-25@
12:00 UTC

Mar-25 @ 12:00 UTC

FM250200 00000KT P6SM SKC

From

From Standard forecast or significant change

Cloud Levels
  • Clear skies

Mar-25@
12:00 UTC

Mar-25 @ 12:00 UTC

Mar-25@
18:00 UTC

Mar-25 @ 18:00 UTC

BECMG 2512/2513 6SM HZ

Becoming

Becoming Conditions expected by Mon, Mar 25, 2019 @ 13:00 UTC

Conditions
Haze
Cloud Levels
  • Clear skies